createdAt,value
2019-03-25T00:00:39.892Z,8.03
2019-03-25T00:03:08.363Z,7.42
2019-03-25T00:05:35.025Z,8.30
2019-03-25T00:08:01.683Z,8.30
2019-03-25T00:10:28.423Z,7.78
2019-03-25T00:12:55.074Z,8.48
2019-03-25T00:15:21.807Z,8.75
2019-03-25T00:17:48.520Z,8.30
2019-03-25T00:20:15.169Z,8.45
2019-03-25T00:22:41.909Z,8.98
2019-03-25T00:25:08.589Z,9.25
2019-03-25T00:27:35.296Z,9.15
2019-03-25T00:30:02.009Z,9.25
2019-03-25T00:32:29.846Z,8.98
2019-03-25T00:34:56.443Z,8.88
2019-03-25T00:37:23.143Z,9.53
2019-03-25T00:39:49.896Z,9.23
2019-03-25T00:42:16.651Z,8.18
2019-03-25T00:44:43.339Z,8.60
2019-03-25T00:47:10.074Z,9.70
2019-03-25T00:49:36.714Z,9.43
2019-03-25T00:52:03.392Z,9.60
2019-03-25T00:54:30.123Z,8.45
2019-03-25T00:56:56.728Z,8.50
2019-03-25T00:59:23.361Z,8.50
2019-03-25T01:01:50.060Z,8.85
2019-03-25T01:04:16.686Z,8.10
2019-03-25T01:06:43.311Z,7.60
2019-03-25T01:09:09.984Z,7.33
2019-03-25T01:11:36.608Z,7.72
2019-03-25T01:14:03.249Z,7.72
2019-03-25T01:16:29.947Z,8.18
2019-03-25T01:18:56.570Z,8.80
2019-03-25T01:21:23.195Z,9.25
2019-03-25T01:23:49.887Z,9.43
2019-03-25T01:26:16.590Z,8.53
2019-03-25T01:28:43.349Z,9.93
2019-03-25T01:31:10.068Z,10.30
2019-03-25T01:33:36.678Z,10.32
2019-03-25T01:36:03.357Z,11.70
2019-03-25T01:38:30.053Z,12.18
2019-03-25T01:40:57.633Z,11.70
2019-03-25T01:43:24.343Z,11.63
2019-03-25T01:45:51.071Z,12.98
2019-03-25T01:48:17.680Z,12.60
2019-03-25T01:50:44.381Z,12.80
2019-03-25T01:53:11.087Z,12.03
2019-03-25T01:55:37.754Z,12.78
2019-03-25T01:58:04.457Z,12.47
2019-03-25T02:00:31.139Z,12.65
2019-03-25T02:02:57.916Z,12.80
2019-03-25T02:05:24.555Z,12.37
2019-03-25T02:07:51.275Z,11.55
2019-03-25T02:10:18.025Z,12.05
2019-03-25T02:12:44.714Z,11.60
2019-03-25T02:15:14.233Z,12.03
2019-03-25T02:17:41.014Z,12.47
2019-03-25T02:20:07.986Z,12.63
2019-03-25T02:22:34.783Z,12.43
2019-03-25T02:25:01.929Z,13.00
2019-03-25T02:27:28.557Z,11.65
2019-03-25T02:29:55.376Z,12.13
2019-03-25T02:32:22.030Z,11.70
2019-03-25T02:34:48.698Z,11.55
2019-03-25T02:37:15.499Z,11.48
2019-03-25T02:39:42.123Z,11.63
2019-03-25T02:42:08.955Z,11.95
2019-03-25T02:44:35.645Z,12.10
2019-03-25T02:47:02.355Z,11.10
2019-03-25T02:49:29.090Z,11.55
2019-03-25T02:51:55.874Z,12.07
2019-03-25T02:54:22.531Z,12.03
2019-03-25T02:56:49.220Z,11.93
2019-03-25T02:59:15.895Z,12.13
2019-03-25T03:01:42.655Z,12.45
2019-03-25T03:04:09.363Z,11.73
2019-03-25T03:06:36.097Z,12.63
2019-03-25T03:09:05.317Z,12.50
2019-03-25T03:11:33.020Z,12.75
2019-03-25T03:13:59.724Z,12.28
2019-03-25T03:16:26.453Z,12.88
2019-03-25T03:18:53.183Z,13.10
2019-03-25T03:21:19.905Z,12.73
2019-03-25T03:23:46.532Z,12.75
2019-03-25T03:26:13.265Z,12.78
2019-03-25T03:28:39.960Z,13.08
2019-03-25T03:31:06.765Z,12.70
2019-03-25T03:33:33.609Z,12.30
2019-03-25T03:36:01.329Z,12.70
2019-03-25T03:38:27.961Z,13.08
2019-03-25T03:40:54.728Z,13.25
2019-03-25T03:43:21.516Z,12.18
2019-03-25T03:45:48.258Z,13.20
2019-03-25T03:48:14.970Z,12.40
2019-03-25T03:50:41.770Z,12.25
2019-03-25T03:53:08.603Z,11.83
2019-03-25T03:55:37.880Z,12.07
2019-03-25T03:58:06.678Z,11.68
2019-03-25T04:00:33.709Z,12.28
2019-03-25T04:03:00.391Z,11.33
2019-03-25T04:05:27.429Z,11.28
2019-03-25T04:07:54.040Z,11.08
2019-03-25T04:10:20.759Z,11.73
2019-03-25T04:12:47.447Z,11.10
2019-03-25T04:15:23.774Z,10.63
2019-03-25T04:17:50.420Z,10.95
2019-03-25T04:20:17.143Z,11.25
2019-03-25T04:22:43.750Z,11.68
2019-03-25T04:25:10.446Z,11.63
2019-03-25T04:27:37.147Z,10.78
2019-03-25T04:30:04.386Z,11.93
2019-03-25T04:32:31.235Z,11.63
2019-03-25T04:34:58.101Z,12.35
2019-03-25T04:37:24.869Z,10.70
2019-03-25T04:39:51.664Z,11.18
2019-03-25T04:42:18.401Z,12.65
2019-03-25T04:44:46.059Z,10.80
2019-03-25T04:47:12.796Z,11.50
2019-03-25T04:49:39.648Z,10.68
2019-03-25T04:52:06.275Z,11.78
2019-03-25T04:54:33.027Z,12.40
2019-03-25T04:56:59.761Z,13.20
2019-03-25T04:59:26.499Z,12.37
2019-03-25T05:01:53.243Z,15.00
2019-03-25T05:04:21.100Z,14.23
2019-03-25T05:06:47.736Z,14.15
2019-03-25T05:09:14.585Z,15.50
2019-03-25T05:11:41.331Z,14.93
2019-03-25T05:14:08.167Z,15.35
2019-03-25T05:16:34.900Z,15.93
2019-03-25T05:19:01.747Z,15.88
2019-03-25T05:21:28.487Z,15.95
2019-03-25T05:23:55.219Z,14.68
2019-03-25T05:26:21.898Z,14.95
2019-03-25T05:28:48.703Z,15.80
2019-03-25T05:31:15.436Z,15.78
2019-03-25T05:33:42.288Z,15.20
2019-03-25T05:36:09.027Z,16.02
2019-03-25T05:38:35.671Z,16.75
2019-03-25T05:41:02.982Z,17.20
2019-03-25T05:43:29.654Z,18.98
2019-03-25T05:45:57.309Z,18.87
2019-03-25T05:48:24.053Z,18.52
2019-03-25T05:50:50.692Z,18.95
2019-03-25T05:53:17.431Z,18.77
2019-03-25T05:55:44.170Z,18.40
2019-03-25T05:58:10.800Z,18.15
2019-03-25T06:00:38.365Z,18.48
2019-03-25T06:03:05.105Z,19.05
2019-03-25T06:05:31.845Z,18.15
2019-03-25T06:07:58.586Z,17.55
2019-03-25T06:10:25.327Z,17.60
2019-03-25T06:12:52.065Z,17.20
2019-03-25T06:15:18.797Z,17.02
2019-03-25T06:17:45.639Z,17.15
2019-03-25T06:20:12.583Z,16.15
2019-03-25T06:22:39.320Z,15.43
2019-03-25T06:25:06.644Z,16.12
2019-03-25T06:27:33.322Z,16.75
2019-03-25T06:30:00.061Z,15.85
2019-03-25T06:32:26.790Z,16.35
2019-03-25T06:34:53.394Z,15.90
2019-03-25T06:37:20.064Z,16.67
2019-03-25T06:39:46.907Z,15.55
2019-03-25T06:42:13.756Z,15.85
2019-03-25T06:44:40.487Z,16.73
2019-03-25T06:47:07.266Z,17.42
2019-03-25T06:49:34.066Z,18.45
2019-03-25T06:52:00.917Z,20.23
2019-03-25T06:54:27.766Z,22.40
2019-03-25T06:56:54.497Z,21.07
2019-03-25T06:59:21.167Z,18.42
2019-03-25T07:01:47.869Z,17.77
2019-03-25T07:04:14.647Z,16.80
2019-03-25T07:06:41.446Z,16.45
2019-03-25T07:09:08.165Z,15.18
2019-03-25T07:11:35.099Z,14.85
2019-03-25T07:14:01.728Z,24.12
2019-03-25T07:16:28.515Z,19.25
2019-03-25T07:18:55.153Z,17.62
2019-03-25T07:21:21.787Z,16.00
2019-03-25T07:23:48.539Z,15.53
2019-03-25T07:26:15.271Z,13.90
2019-03-25T07:28:41.882Z,13.70
2019-03-25T07:31:08.648Z,13.95
2019-03-25T07:33:35.276Z,13.10
2019-03-25T07:36:02.023Z,14.35
2019-03-25T07:38:28.763Z,15.13
2019-03-25T07:40:55.394Z,15.25
2019-03-25T07:43:22.030Z,14.53
2019-03-25T07:45:51.395Z,14.53
2019-03-25T07:48:18.480Z,14.05
2019-03-25T07:50:45.217Z,13.95
2019-03-25T07:53:11.927Z,13.78
2019-03-25T07:55:38.545Z,14.43
2019-03-25T07:58:05.279Z,14.28
2019-03-25T08:00:31.965Z,14.58
2019-03-25T08:02:59.937Z,14.83
2019-03-25T08:05:26.706Z,15.85
2019-03-25T08:07:53.431Z,15.93
2019-03-25T08:10:31.945Z,15.65
2019-03-25T08:12:59.862Z,16.48
2019-03-25T08:15:26.713Z,14.83
2019-03-25T08:17:53.496Z,14.80
2019-03-25T08:20:20.336Z,14.80
2019-03-25T08:22:47.015Z,15.32
2019-03-25T08:25:13.758Z,14.75
2019-03-25T08:27:40.426Z,14.58
2019-03-25T08:30:08.721Z,14.28
2019-03-25T08:32:35.978Z,13.88
2019-03-25T08:35:04.511Z,13.88
2019-03-25T08:37:31.291Z,13.25
2019-03-25T08:39:57.954Z,13.98
2019-03-25T08:42:24.673Z,14.43
2019-03-25T08:44:51.387Z,14.95
2019-03-25T08:47:18.017Z,14.18
2019-03-25T08:49:45.534Z,15.55
2019-03-25T08:52:12.522Z,16.25
2019-03-25T08:54:39.182Z,16.15
2019-03-25T08:57:05.865Z,16.23
2019-03-25T08:59:32.567Z,16.15
2019-03-25T09:01:59.210Z,16.45
2019-03-25T09:04:25.887Z,16.00
2019-03-25T09:06:53.598Z,15.90
2019-03-25T09:09:20.335Z,16.25
2019-03-25T09:11:47.133Z,15.63
2019-03-25T09:14:13.857Z,15.35
2019-03-25T09:16:40.483Z,15.30
2019-03-25T09:19:07.147Z,17.87
2019-03-25T09:21:33.847Z,16.90
2019-03-25T09:24:00.658Z,17.92
2019-03-25T09:26:27.364Z,18.02
2019-03-25T09:28:54.082Z,20.00
2019-03-25T09:31:20.791Z,18.00
2019-03-25T09:33:47.554Z,17.40
2019-03-25T09:36:15.130Z,17.10
2019-03-25T09:38:41.867Z,15.65
2019-03-25T09:41:08.863Z,14.13
2019-03-25T09:43:35.683Z,14.87
2019-03-25T09:46:02.413Z,14.40
2019-03-25T09:48:29.085Z,13.15
2019-03-25T09:50:55.865Z,11.93
2019-03-25T09:53:22.511Z,11.38
2019-03-25T09:55:49.258Z,10.85
2019-03-25T09:58:16.034Z,11.15
2019-03-25T10:00:42.674Z,11.93
2019-03-25T10:03:09.320Z,12.13
2019-03-25T10:05:36.065Z,11.80
2019-03-25T10:08:02.686Z,11.93
2019-03-25T10:10:29.382Z,12.58
2019-03-25T10:12:56.884Z,12.23
2019-03-25T10:15:23.770Z,13.75
2019-03-25T10:17:50.406Z,13.13
2019-03-25T10:20:17.151Z,13.43
2019-03-25T10:22:43.811Z,14.87
2019-03-25T10:25:11.575Z,14.45
2019-03-25T10:27:38.320Z,15.08
2019-03-25T10:30:09.598Z,14.38
2019-03-25T10:32:36.332Z,15.48
2019-03-25T10:35:04.515Z,16.40
2019-03-25T10:37:31.119Z,14.53
2019-03-25T10:39:57.837Z,15.60
2019-03-25T10:42:24.627Z,16.97
2019-03-25T10:44:52.326Z,16.37
2019-03-25T10:47:19.065Z,17.75
2019-03-25T10:49:45.804Z,17.10
2019-03-25T10:52:13.513Z,17.62
2019-03-25T10:54:40.184Z,18.92
2019-03-25T10:57:06.926Z,17.77
2019-03-25T10:59:33.610Z,17.62
2019-03-25T11:02:00.271Z,18.10
2019-03-25T11:04:26.983Z,18.45
2019-03-25T11:06:53.631Z,18.12
2019-03-25T11:09:20.322Z,19.67
2019-03-25T11:11:47.015Z,18.37
2019-03-25T11:14:13.650Z,20.37
2019-03-25T11:16:40.317Z,19.92
2019-03-25T11:19:07.051Z,19.77
2019-03-25T11:21:33.681Z,18.52
2019-03-25T11:24:00.358Z,18.20
2019-03-25T11:26:27.087Z,17.82
2019-03-25T11:28:54.245Z,18.70
2019-03-25T11:31:20.939Z,17.75
2019-03-25T11:33:47.651Z,19.05
2019-03-25T11:36:14.687Z,19.52
2019-03-25T11:38:41.409Z,19.37
2019-03-25T11:41:08.119Z,20.25
2019-03-25T11:43:34.737Z,18.77
2019-03-25T11:46:01.435Z,18.60
2019-03-25T11:48:28.143Z,17.60
2019-03-25T11:50:54.962Z,18.25
2019-03-25T11:53:21.705Z,19.32
2019-03-25T11:55:48.447Z,20.17
2019-03-25T11:58:15.047Z,19.62
2019-03-25T12:00:41.687Z,21.07
2019-03-25T12:03:08.425Z,19.92
2019-03-25T12:05:35.055Z,20.37
2019-03-25T12:08:02.656Z,19.55
2019-03-25T12:10:29.353Z,21.70
2019-03-25T12:12:55.982Z,20.70
2019-03-25T12:15:22.588Z,20.10
2019-03-25T12:17:49.302Z,20.55
2019-03-25T12:20:15.907Z,20.57
2019-03-25T12:22:42.581Z,21.02
2019-03-25T12:25:09.475Z,21.23
2019-03-25T12:27:36.094Z,22.07
2019-03-25T12:30:05.114Z,21.45
2019-03-25T12:32:31.779Z,21.65
2019-03-25T12:34:58.488Z,20.90
2019-03-25T12:37:25.146Z,23.00
2019-03-25T12:39:51.889Z,22.50
2019-03-25T12:42:18.522Z,22.65
2019-03-25T12:44:45.226Z,21.00
2019-03-25T12:47:11.914Z,21.68
2019-03-25T12:49:38.578Z,22.05
2019-03-25T12:52:05.213Z,21.35
2019-03-25T12:54:32.063Z,20.88
2019-03-25T12:56:58.780Z,20.50
2019-03-25T12:59:25.488Z,21.95
2019-03-25T13:01:53.368Z,22.48
2019-03-25T13:04:20.258Z,21.95
2019-03-25T13:06:46.999Z,21.75
2019-03-25T13:09:13.678Z,22.22
2019-03-25T13:11:40.446Z,22.17
2019-03-25T13:14:07.150Z,22.05
2019-03-25T13:16:33.870Z,22.67
2019-03-25T13:19:00.472Z,21.52
2019-03-25T13:21:27.164Z,22.95
2019-03-25T13:23:53.869Z,23.27
2019-03-25T13:26:20.593Z,22.73
2019-03-25T13:28:47.295Z,22.52
2019-03-25T13:31:14.003Z,23.18
2019-03-25T13:33:40.658Z,21.50
2019-03-25T13:36:07.394Z,22.90
2019-03-25T13:38:34.131Z,22.70
2019-03-25T13:41:00.759Z,21.62
2019-03-25T13:43:27.362Z,22.35
2019-03-25T13:46:04.801Z,22.30
2019-03-25T13:48:22.567Z,20.95
2019-03-25T13:50:49.197Z,21.68
2019-03-25T13:53:15.986Z,22.35
2019-03-25T13:55:42.618Z,21.97
2019-03-25T13:58:09.293Z,21.05
2019-03-25T14:00:37.096Z,21.77
2019-03-25T14:03:03.722Z,21.75
2019-03-25T14:05:30.354Z,21.93
2019-03-25T14:07:57.044Z,22.80
2019-03-25T14:10:23.747Z,20.75
2019-03-25T14:12:51.960Z,23.55
2019-03-25T14:15:18.934Z,22.52
2019-03-25T14:17:45.570Z,22.73
2019-03-25T14:20:12.249Z,23.27
2019-03-25T14:22:38.955Z,23.10
2019-03-25T14:25:05.702Z,21.37
2019-03-25T14:27:32.349Z,19.37
2019-03-25T14:29:59.101Z,20.57
2019-03-25T14:32:25.706Z,22.22
2019-03-25T14:34:52.393Z,20.20
2019-03-25T14:37:19.084Z,21.57
2019-03-25T14:39:45.734Z,23.95
2019-03-25T14:42:12.514Z,23.40
2019-03-25T14:44:39.239Z,24.00
2019-03-25T14:47:05.976Z,23.85
2019-03-25T14:49:32.690Z,24.85
2019-03-25T14:51:59.528Z,24.27
2019-03-25T14:54:26.169Z,23.42
2019-03-25T14:56:52.842Z,21.97
2019-03-25T14:59:20.443Z,24.95
2019-03-25T15:01:47.151Z,24.35
2019-03-25T15:04:13.855Z,25.48
2019-03-25T15:06:40.679Z,24.75
2019-03-25T15:09:07.527Z,24.98
2019-03-25T15:11:35.074Z,24.40
2019-03-25T15:14:02.093Z,23.85
2019-03-25T15:16:28.726Z,24.00
2019-03-25T15:18:55.352Z,24.10
2019-03-25T15:21:22.108Z,26.37
2019-03-25T15:23:48.710Z,27.37
2019-03-25T15:26:15.338Z,25.82
2019-03-25T15:28:42.010Z,25.00
2019-03-25T15:31:08.619Z,25.23
2019-03-25T15:33:35.292Z,23.47
2019-03-25T15:36:02.028Z,26.33
2019-03-25T15:38:28.655Z,27.20
2019-03-25T15:40:55.246Z,27.62
2019-03-25T15:43:22.926Z,26.52
2019-03-25T15:45:51.917Z,27.98
2019-03-25T15:48:18.207Z,25.57
2019-03-25T15:50:44.935Z,20.57
2019-03-25T15:53:11.543Z,15.68
2019-03-25T15:55:38.219Z,12.28
2019-03-25T15:58:05.027Z,10.78
2019-03-25T16:03:55.757Z,8.95
2019-03-25T16:06:22.528Z,8.65
2019-03-25T16:08:49.235Z,8.85
2019-03-25T16:11:15.934Z,9.65
2019-03-25T16:13:42.488Z,10.88
2019-03-25T16:16:09.141Z,9.60
2019-03-25T16:19:19.862Z,9.58
2019-03-25T16:21:46.576Z,9.00
2019-03-25T16:24:13.229Z,8.55
2019-03-25T16:26:39.904Z,6.97
2019-03-25T16:29:06.664Z,6.50
2019-03-25T16:31:33.354Z,7.50
2019-03-25T16:34:00.092Z,7.80
2019-03-25T16:36:26.699Z,7.45
2019-03-25T16:38:53.394Z,8.55
2019-03-25T16:41:20.157Z,5.92
2019-03-25T16:43:46.840Z,4.05
2019-03-25T16:46:13.473Z,5.60
2019-03-25T16:48:40.237Z,4.42
2019-03-25T16:51:06.827Z,3.77
2019-03-25T16:53:33.506Z,4.15
2019-03-25T16:56:00.181Z,4.05
2019-03-25T16:58:26.802Z,3.95
2019-03-25T17:00:53.443Z,2.80
2019-03-25T17:03:20.252Z,3.35
2019-03-25T17:05:46.961Z,2.85
2019-03-25T17:08:13.654Z,2.70
2019-03-25T17:10:40.375Z,2.90
2019-03-25T17:13:06.967Z,3.08
2019-03-25T17:15:33.632Z,2.92
2019-03-25T17:18:00.320Z,2.90
2019-03-25T17:20:27.057Z,2.90
2019-03-25T17:22:53.775Z,2.70
2019-03-25T17:25:20.496Z,1.90
2019-03-25T17:27:47.086Z,1.98
2019-03-25T17:30:15.149Z,1.92
2019-03-25T17:32:41.815Z,2.20
2019-03-25T17:35:08.532Z,1.70
2019-03-25T17:37:35.221Z,2.55
2019-03-25T17:40:02.028Z,2.65
2019-03-25T17:42:29.645Z,1.50
2019-03-25T17:44:56.318Z,1.45
2019-03-25T17:47:22.975Z,1.35
2019-03-25T17:49:49.612Z,1.47
2019-03-25T17:52:16.329Z,1.77
2019-03-25T17:54:43.120Z,1.75
2019-03-25T17:57:09.741Z,1.70
2019-03-25T17:59:36.396Z,1.52
2019-03-25T18:02:03.090Z,1.00
2019-03-25T18:04:29.745Z,1.22
2019-03-25T18:06:56.389Z,1.72
2019-03-25T18:09:23.109Z,3.27
2019-03-25T18:11:49.729Z,3.45
2019-03-25T18:14:16.418Z,4.12
2019-03-25T18:16:43.150Z,2.30
2019-03-25T18:19:09.750Z,2.65
2019-03-25T18:21:36.396Z,2.10
2019-03-25T18:24:03.122Z,1.90
2019-03-25T18:26:30.760Z,1.60
2019-03-25T18:28:57.386Z,2.10
2019-03-25T18:31:24.059Z,3.20
2019-03-25T18:33:50.734Z,1.15
2019-03-25T18:36:17.423Z,1.02
2019-03-25T18:38:44.111Z,1.70
2019-03-25T18:41:10.807Z,1.50
2019-03-25T18:43:37.511Z,1.80
2019-03-25T18:46:04.229Z,1.70
2019-03-25T18:48:30.808Z,1.92
2019-03-25T18:50:57.464Z,1.77
2019-03-25T18:53:24.160Z,1.70
2019-03-25T18:55:50.877Z,2.40
2019-03-25T18:58:17.605Z,1.80
2019-03-25T19:00:44.353Z,1.65
2019-03-25T19:03:10.987Z,2.20
2019-03-25T19:05:37.675Z,2.17
2019-03-25T19:08:04.765Z,1.37
2019-03-25T19:10:31.654Z,0.85
2019-03-25T19:12:58.374Z,1.40
2019-03-25T19:15:25.052Z,0.88
2019-03-25T19:17:51.747Z,0.90
2019-03-25T19:20:18.416Z,1.40
2019-03-25T19:22:45.205Z,0.80
2019-03-25T19:25:11.970Z,1.12
2019-03-25T19:27:38.651Z,1.30
2019-03-25T19:30:07.261Z,1.60
2019-03-25T19:32:33.908Z,2.20
2019-03-25T19:35:00.523Z,3.60
2019-03-25T19:37:27.235Z,4.67
2019-03-25T19:39:53.873Z,2.02
2019-03-25T19:42:20.632Z,2.35
2019-03-25T19:44:47.295Z,2.90
2019-03-25T19:47:13.912Z,3.20
2019-03-25T19:49:40.577Z,2.00
2019-03-25T19:52:09.506Z,2.50
2019-03-25T19:54:35.942Z,3.00
2019-03-25T19:57:02.663Z,2.87
2019-03-25T19:59:29.431Z,4.08
2019-03-25T20:01:56.161Z,2.65
2019-03-25T20:04:23.983Z,2.75
2019-03-25T20:06:51.657Z,3.20
2019-03-25T20:09:18.319Z,2.10
2019-03-25T20:11:45.066Z,1.90
2019-03-25T20:14:11.817Z,2.12
2019-03-25T20:16:38.542Z,2.22
2019-03-25T20:19:05.328Z,3.65
2019-03-25T20:21:32.078Z,3.45
2019-03-25T20:23:58.699Z,3.30
2019-03-25T20:26:25.494Z,3.55
2019-03-25T20:28:52.166Z,3.33
2019-03-25T20:31:18.918Z,3.00
2019-03-25T20:33:45.654Z,2.62
2019-03-25T20:36:12.360Z,2.87
2019-03-25T20:38:38.983Z,3.40
2019-03-25T20:41:05.700Z,2.83
2019-03-25T20:43:32.373Z,3.25
2019-03-25T20:45:59.101Z,3.02
2019-03-25T20:48:25.855Z,2.98
2019-03-25T20:50:52.620Z,2.70
2019-03-25T20:53:19.220Z,2.70
2019-03-25T20:55:45.939Z,3.17
2019-03-25T20:58:12.757Z,3.17
2019-03-25T21:00:51.101Z,3.30
2019-03-25T21:03:18.138Z,3.77
2019-03-25T21:05:44.887Z,3.12
2019-03-25T21:08:11.619Z,3.50
2019-03-25T21:10:39.307Z,3.00
2019-03-25T21:13:06.063Z,3.70
2019-03-25T21:15:32.767Z,3.67
2019-03-25T21:17:59.418Z,3.45
2019-03-25T21:20:26.082Z,3.40
2019-03-25T21:22:52.787Z,3.10
2019-03-25T21:25:19.520Z,2.77
2019-03-25T21:27:46.238Z,2.52
2019-03-25T21:30:12.990Z,2.75
2019-03-25T21:32:39.685Z,3.00
2019-03-25T21:35:06.673Z,2.98
2019-03-25T21:37:33.458Z,3.17
2019-03-25T21:40:00.074Z,3.02
2019-03-25T21:42:29.035Z,3.10
2019-03-25T21:44:55.313Z,2.45
2019-03-25T21:47:22.921Z,2.52
2019-03-25T21:49:49.728Z,2.00
2019-03-25T21:52:16.413Z,2.77
2019-03-25T21:54:43.058Z,3.15
2019-03-25T21:57:10.957Z,2.33
2019-03-25T21:59:37.723Z,2.08
2019-03-25T22:02:04.379Z,2.08
2019-03-25T22:04:32.073Z,1.90
2019-03-25T22:06:58.738Z,1.67
2019-03-25T22:09:25.406Z,1.60
2019-03-25T22:11:52.136Z,1.77
2019-03-25T22:14:18.745Z,1.45
2019-03-25T22:16:45.407Z,1.55
2019-03-25T22:19:12.107Z,2.27
2019-03-25T22:21:38.754Z,2.52
2019-03-25T22:24:05.381Z,3.15
2019-03-25T22:26:32.132Z,2.47
2019-03-25T22:28:58.787Z,2.22
2019-03-25T22:31:25.439Z,2.52
2019-03-25T22:33:52.129Z,2.50
2019-03-25T22:36:18.748Z,2.83
2019-03-25T22:38:45.450Z,2.75
2019-03-25T22:41:12.119Z,2.92
2019-03-25T22:43:38.829Z,2.58
2019-03-25T22:46:05.515Z,3.00
2019-03-25T22:48:32.242Z,3.08
2019-03-25T22:50:58.827Z,3.27
2019-03-25T22:53:25.487Z,4.25
2019-03-25T22:55:52.166Z,4.10
2019-03-25T22:58:18.880Z,3.75
2019-03-25T23:00:45.965Z,3.30
2019-03-25T23:03:12.687Z,2.95
2019-03-25T23:05:40.405Z,3.10
2019-03-25T23:08:07.037Z,3.05
2019-03-25T23:10:33.948Z,3.10
2019-03-25T23:13:00.538Z,3.15
2019-03-25T23:15:27.229Z,3.40
2019-03-25T23:17:53.921Z,3.37
2019-03-25T23:20:21.639Z,3.80
2019-03-25T23:22:48.328Z,3.70
2019-03-25T23:25:15.059Z,3.37
2019-03-25T23:27:42.771Z,3.52
2019-03-25T23:30:09.550Z,3.83
2019-03-25T23:32:36.240Z,2.65
2019-03-25T23:35:04.674Z,3.10
2019-03-25T23:37:31.362Z,3.12
2019-03-25T23:39:59.091Z,3.08
2019-03-25T23:42:25.771Z,2.42
2019-03-25T23:44:52.396Z,2.02
2019-03-25T23:47:19.200Z,2.17
2019-03-25T23:49:45.787Z,2.10
2019-03-25T23:52:12.474Z,1.90
2019-03-25T23:54:39.143Z,1.70
2019-03-25T23:57:05.764Z,1.80
2019-03-25T23:59:32.408Z,2.00
